Time;durP1;ratioP1;P1;durP2;ratioP2;P2;SDS_P1;SDS_P2;PMS_P1;PMS_P2;Temp;Humidity;BMP_temperature;BMP_pressure;BME280_temperature;BME280_humidity;BME280_pressure;Samples;Min_cycle;Max_cycle;Signal;HPM_P1;HPM_P2
2023/06/10 00:01:46;;;;;;;10.93;8.33;;;;;;;15.04;100.00;93538.06;5031199;28;20051;-59
2023/06/10 00:04:16;;;;;;;11.65;8.95;;;;;;;15.10;100.00;93539.00;5026704;28;20107;-62
2023/06/10 00:06:44;;;;;;;15.57;10.90;;;;;;;15.31;100.00;93531.84;5027263;28;20053;-60
2023/06/10 00:09:11;;;;;;;12.32;9.30;;;;;;;15.47;100.00;93542.66;5016608;28;20064;-58
2023/06/10 00:11:37;;;;;;;11.70;9.50;;;;;;;15.59;100.00;93538.25;5031152;28;20048;-66
2023/06/10 00:14:04;;;;;;;12.10;9.57;;;;;;;15.69;99.39;93539.03;5030621;28;20429;-61
2023/06/10 00:16:31;;;;;;;10.73;8.82;;;;;;;15.17;100.00;93541.47;5030553;28;20414;-58
2023/06/10 00:19:01;;;;;;;11.90;8.93;;;;;;;15.08;100.00;93533.94;5028150;28;20418;-58
2023/06/10 00:21:28;;;;;;;11.68;9.43;;;;;;;15.31;100.00;93538.19;5001279;28;20053;-58
2023/06/10 00:23:55;;;;;;;13.32;9.88;;;;;;;15.58;100.00;93536.72;4991186;28;20072;-58
2023/06/10 00:26:23;;;;;;;12.53;9.03;;;;;;;15.24;100.00;93541.22;5000400;28;20398;-58
2023/06/10 00:28:50;;;;;;;12.63;9.52;;;;;;;15.35;100.00;93533.28;4996664;28;20434;-62
2023/06/10 00:31:17;;;;;;;12.48;9.40;;;;;;;14.97;100.00;93523.28;5024327;28;20540;-59
2023/06/10 00:33:44;;;;;;;11.20;9.00;;;;;;;14.97;100.00;93533.59;5026362;28;20052;-61
2023/06/10 00:36:10;;;;;;;11.15;9.00;;;;;;;14.26;100.00;93525.91;5030453;28;20049;-59
2023/06/10 00:38:37;;;;;;;11.43;9.67;;;;;;;14.46;100.00;93533.84;5029498;28;20038;-58
2023/06/10 00:41:04;;;;;;;12.13;9.38;;;;;;;14.53;100.00;93531.63;5017787;28;20799;-59
2023/06/10 00:43:30;;;;;;;11.90;9.80;;;;;;;14.42;100.00;93535.97;5013079;28;20124;-60
2023/06/10 00:45:57;;;;;;;11.63;9.70;;;;;;;14.30;100.00;93532.81;5016057;28;20033;-59
2023/06/10 00:48:25;;;;;;;14.43;9.63;;;;;;;13.88;100.00;93537.84;5030369;28;20055;-62
2023/06/10 00:50:52;;;;;;;13.90;9.70;;;;;;;13.98;100.00;93534.75;5029780;28;20049;-64
2023/06/10 00:53:20;;;;;;;12.38;9.38;;;;;;;13.99;100.00;93524.47;5030610;28;20045;-58
2023/06/10 00:55:47;;;;;;;12.98;9.80;;;;;;;14.05;100.00;93528.19;5029663;28;20053;-58
2023/06/10 00:58:15;;;;;;;12.50;10.10;;;;;;;14.05;100.00;93519.91;5030481;28;20045;-58
2023/06/10 01:00:42;;;;;;;12.55;10.13;;;;;;;13.78;100.00;93521.22;5021117;28;20045;-59
2023/06/10 01:03:09;;;;;;;12.80;9.70;;;;;;;14.23;100.00;93527.56;4995490;28;20056;-64
2023/06/10 01:05:37;;;;;;;14.43;10.43;;;;;;;14.02;100.00;93517.28;5017995;28;20061;-66
2023/06/10 01:08:06;;;;;;;13.05;10.32;;;;;;;13.52;100.00;93519.72;5025804;28;20896;-63
2023/06/10 01:10:47;;;;;;;14.73;10.20;;;;;;;13.73;100.00;93529.28;5030329;28;20047;-62
2023/06/10 01:13:15;;;;;;;13.05;10.18;;;;;;;13.76;100.00;93529.19;5028926;28;20041;-59
2023/06/10 01:15:42;;;;;;;11.90;9.50;;;;;;;13.54;100.00;93522.81;5029235;28;20049;-63
2023/06/10 01:18:14;;;;;;;12.43;10.00;;;;;;;13.79;100.00;93520.00;5027816;28;20033;-62
2023/06/10 01:20:42;;;;;;;12.30;10.23;;;;;;;13.42;100.00;93521.66;5010652;28;20072;-57
2023/06/10 01:23:10;;;;;;;13.32;10.20;;;;;;;13.64;100.00;93518.94;5027594;28;20114;-58
2023/06/10 01:25:40;;;;;;;13.15;10.10;;;;;;;13.47;100.00;93520.31;5010563;28;20042;-58
2023/06/10 01:28:21;;;;;;;12.70;10.23;;;;;;;13.66;100.00;93513.78;5025779;28;21461;-58
2023/06/10 01:30:52;;;;;;;12.57;10.30;;;;;;;13.47;100.00;93517.56;5016899;28;20050;-59
2023/06/10 01:33:26;;;;;;;12.15;10.07;;;;;;;13.52;100.00;93515.00;5020056;28;20411;-64
2023/06/10 01:35:54;;;;;;;13.55;10.57;;;;;;;13.33;100.00;93514.03;5009384;28;20095;-62
2023/06/10 01:38:22;;;;;;;13.82;10.60;;;;;;;13.41;100.00;93522.84;5008093;28;20127;-59
2023/06/10 01:40:52;;;;;;;12.80;10.23;;;;;;;13.29;100.00;93518.09;5001186;28;20053;-60
2023/06/10 01:43:20;;;;;;;13.80;10.50;;;;;;;13.22;100.00;93521.84;5004685;28;20060;-59
2023/06/10 01:45:47;;;;;;;13.88;10.98;;;;;;;13.23;100.00;93525.38;5009100;28;20044;-60
2023/06/10 01:48:14;;;;;;;13.60;10.05;;;;;;;13.27;100.00;93523.28;5008302;28;20049;-58
2023/06/10 01:50:40;;;;;;;12.77;10.32;;;;;;;13.22;100.00;93523.81;5008757;28;20034;-58
2023/06/10 01:53:07;;;;;;;13.67;10.33;;;;;;;13.23;100.00;93522.63;5009393;28;20037;-62
2023/06/10 01:55:34;;;;;;;12.60;10.13;;;;;;;13.27;100.00;93531.56;5011866;28;20045;-59
2023/06/10 01:58:01;;;;;;;14.57;10.40;;;;;;;13.19;100.00;93525.47;5028817;28;20398;-59
2023/06/10 02:00:28;;;;;;;12.13;10.18;;;;;;;13.13;100.00;93532.75;5029010;28;20045;-65
2023/06/10 02:02:55;;;;;;;12.80;9.90;;;;;;;13.09;100.00;93526.59;5027412;28;20394;-58
2023/06/10 02:05:22;;;;;;;13.67;10.57;;;;;;;13.18;100.00;93535.75;5028917;28;20054;-58
2023/06/10 02:07:49;;;;;;;12.77;9.80;;;;;;;13.07;100.00;93529.78;5028523;28;20398;-60
2023/06/10 02:10:16;;;;;;;14.00;10.38;;;;;;;13.12;100.00;93532.00;5028853;28;20097;-64
2023/06/10 02:12:43;;;;;;;14.35;10.52;;;;;;;13.07;100.00;93535.28;5027244;28;20051;-61
2023/06/10 02:15:09;;;;;;;12.90;10.05;;;;;;;13.11;100.00;93535.19;5029257;28;20041;-59
2023/06/10 02:17:37;;;;;;;14.07;10.47;;;;;;;13.16;100.00;93537.41;5028619;28;20094;-58
2023/06/10 02:20:07;;;;;;;13.35;10.13;;;;;;;13.16;100.00;93535.41;5016107;28;20863;-58
2023/06/10 02:22:33;;;;;;;13.43;10.63;;;;;;;13.13;100.00;93541.03;5028041;28;20053;-58
2023/06/10 02:25:00;;;;;;;13.65;10.10;;;;;;;13.14;100.00;93543.34;5028428;28;20057;-58
2023/06/10 02:27:27;;;;;;;12.88;10.15;;;;;;;13.04;100.00;93541.69;5029037;28;20410;-58
2023/06/10 02:29:54;;;;;;;12.47;10.20;;;;;;;13.03;100.00;93539.38;5028318;28;20048;-67
2023/06/10 02:32:20;;;;;;;13.88;10.30;;;;;;;13.02;100.00;93541.38;5025587;28;20038;-63
2023/06/10 02:34:48;;;;;;;14.90;9.90;;;;;;;13.03;100.00;93542.91;5026831;28;20391;-58
2023/06/10 02:37:16;;;;;;;15.93;10.43;;;;;;;13.03;100.00;93539.38;5028773;28;20096;-58
2023/06/10 02:39:42;;;;;;;14.30;10.13;;;;;;;13.05;100.00;93539.72;5018908;28;20046;-58
2023/06/10 02:42:10;;;;;;;60.40;40.37;;;;;;;12.94;100.00;93548.31;5027405;28;20047;-61
2023/06/10 02:44:37;;;;;;;25.95;18.63;;;;;;;12.93;100.00;93550.28;5028458;28;20081;-61
2023/06/10 02:47:05;;;;;;;15.88;12.20;;;;;;;12.86;100.00;93547.75;5028319;28;20045;-61
2023/06/10 02:49:31;;;;;;;16.20;10.80;;;;;;;12.81;100.00;93553.78;5015708;28;20038;-63
2023/06/10 02:51:58;;;;;;;13.63;10.65;;;;;;;12.71;100.00;93541.09;5028175;28;20359;-59
2023/06/10 02:54:26;;;;;;;14.33;10.80;;;;;;;12.61;100.00;93536.69;5028936;28;20045;-58
2023/06/10 02:56:52;;;;;;;13.43;10.10;;;;;;;12.52;100.00;93540.09;5028124;28;20053;-58
2023/06/10 02:59:19;;;;;;;13.98;10.43;;;;;;;12.51;100.00;93538.53;5028648;28;20046;-63
2023/06/10 03:01:46;;;;;;;13.25;9.98;;;;;;;12.53;100.00;93536.13;5026725;28;20053;-61
2023/06/10 03:04:14;;;;;;;13.27;10.25;;;;;;;12.55;100.00;93539.97;5028432;28;20659;-63
2023/06/10 03:06:42;;;;;;;13.20;10.43;;;;;;;12.59;100.00;93545.38;5027550;28;20045;-59
2023/06/10 03:09:09;;;;;;;14.30;10.93;;;;;;;12.59;100.00;93546.16;5027463;28;20495;-61
2023/06/10 03:11:36;;;;;;;13.45;10.65;;;;;;;12.42;100.00;93560.44;5028736;28;20076;-65
2023/06/10 03:14:03;;;;;;;15.30;10.82;;;;;;;12.55;100.00;93552.97;5026611;28;20056;-58
2023/06/10 03:16:31;;;;;;;14.00;10.20;;;;;;;12.53;100.00;93558.16;5019504;28;20498;-59
2023/06/10 03:18:58;;;;;;;15.50;11.00;;;;;;;12.58;100.00;93566.63;5021065;28;20046;-62
2023/06/10 03:21:25;;;;;;;14.68;10.80;;;;;;;12.59;100.00;93562.66;5008479;28;20075;-58
2023/06/10 03:23:52;;;;;;;13.77;10.80;;;;;;;12.45;100.00;93565.06;4994279;28;20498;-60
2023/06/10 03:26:21;;;;;;;15.57;10.93;;;;;;;12.46;100.00;93566.63;5003378;28;20048;-58
2023/06/10 03:28:48;;;;;;;13.80;10.43;;;;;;;12.46;100.00;93564.63;5009164;28;20102;-60
2023/06/10 03:31:16;;;;;;;16.63;10.63;;;;;;;12.46;100.00;93574.88;5011350;28;20054;-63
2023/06/10 03:33:43;;;;;;;13.10;10.45;;;;;;;12.36;100.00;93568.47;5009086;28;20076;-64
2023/06/10 03:36:10;;;;;;;15.60;10.80;;;;;;;12.32;100.00;93565.03;5007008;28;20061;-58
2023/06/10 03:38:37;;;;;;;12.95;10.65;;;;;;;12.34;100.00;93571.63;4990959;28;20050;-59
2023/06/10 03:41:04;;;;;;;15.15;10.68;;;;;;;12.41;100.00;93578.91;4996728;28;20615;-61
2023/06/10 03:43:31;;;;;;;14.57;10.57;;;;;;;12.46;100.00;93577.63;5031287;28;20102;-58
2023/06/10 03:45:58;;;;;;;12.93;10.48;;;;;;;12.47;100.00;93585.44;5030891;28;20041;-62
2023/06/10 03:48:24;;;;;;;13.82;10.40;;;;;;;12.49;100.00;93582.25;5031651;28;20120;-58
2023/06/10 03:50:52;;;;;;;13.57;10.40;;;;;;;12.50;100.00;93592.81;5031173;28;20044;-58
2023/06/10 03:53:18;;;;;;;14.75;11.35;;;;;;;12.55;100.00;93588.75;5031528;28;20095;-59
2023/06/10 03:55:45;;;;;;;13.53;10.00;;;;;;;12.60;100.00;93585.47;5001218;28;20111;-64
2023/06/10 03:58:15;;;;;;;43.35;30.02;;;;;;;12.66;100.00;93585.72;5031475;28;20081;-58
2023/06/10 04:00:42;;;;;;;25.10;18.27;;;;;;;12.73;100.00;93588.25;5029340;28;20033;-58
2023/06/10 04:03:09;;;;;;;17.98;12.13;;;;;;;12.68;100.00;93577.78;5031529;28;20310;-63
2023/06/10 04:05:36;;;;;;;17.60;11.50;;;;;;;12.69;100.00;93580.09;4997802;28;20038;-66
2023/06/10 04:08:03;;;;;;;14.57;10.50;;;;;;;12.64;100.00;93590.88;5019337;28;20042;-58
2023/06/10 04:10:29;;;;;;;13.38;10.82;;;;;;;12.70;100.00;93589.91;5012576;28;20072;-57
2023/06/10 04:12:56;;;;;;;15.13;10.80;;;;;;;12.82;100.00;93584.84;5029193;28;20049;-64
2023/06/10 04:15:23;;;;;;;14.05;10.93;;;;;;;12.93;100.00;93585.31;5031251;28;20045;-61
2023/06/10 04:17:50;;;;;;;14.30;11.02;;;;;;;13.01;100.00;93580.38;5030547;28;20049;-59
2023/06/10 04:20:16;;;;;;;14.80;11.20;;;;;;;13.08;100.00;93580.94;5031412;28;20422;-65
2023/06/10 04:22:44;;;;;;;14.38;10.98;;;;;;;13.15;100.00;93586.22;5030460;28;20041;-58
2023/06/10 04:25:10;;;;;;;15.00;12.18;;;;;;;13.04;100.00;93582.22;5030939;28;20517;-58
2023/06/10 04:27:37;;;;;;;15.52;11.07;;;;;;;13.76;100.00;93589.84;5001632;28;20438;-58
2023/06/10 04:30:05;;;;;;;13.63;11.27;;;;;;;15.46;100.00;93582.63;4985600;28;20395;-64
2023/06/10 04:32:32;;;;;;;13.03;10.60;;;;;;;16.73;100.00;93584.50;4995286;28;20049;-66
2023/06/10 04:35:00;;;;;;;13.02;10.48;;;;;;;16.60;98.78;93581.13;5009516;28;20046;-61
2023/06/10 04:37:29;;;;;;;12.55;10.60;;;;;;;16.45;99.95;93583.75;4992236;28;20396;-58
2023/06/10 04:39:56;;;;;;;14.27;10.40;;;;;;;15.65;100.00;93586.19;4990871;28;20436;-61
2023/06/10 04:42:23;;;;;;;14.23;10.75;;;;;;;15.38;100.00;93590.41;5005465;28;20050;-57
2023/06/10 04:44:50;;;;;;;13.73;10.50;;;;;;;15.20;100.00;93589.56;5017046;28;20045;-58
2023/06/10 04:47:17;;;;;;;14.68;11.60;;;;;;;15.13;100.00;93594.16;5019991;28;20057;-59
2023/06/10 04:49:44;;;;;;;14.05;11.35;;;;;;;15.16;100.00;93598.00;5029785;28;20437;-58
2023/06/10 04:52:11;;;;;;;22.98;17.17;;;;;;;15.05;100.00;93603.94;5030387;28;20041;-59
2023/06/10 04:54:38;;;;;;;16.45;12.23;;;;;;;14.80;100.00;93596.56;5030386;28;20045;-65
2023/06/10 04:57:07;;;;;;;13.93;11.00;;;;;;;14.70;100.00;93595.72;5016835;28;20123;-57
2023/06/10 04:59:37;;;;;;;13.57;11.23;;;;;;;14.43;100.00;93599.03;5025954;28;20071;-59
2023/06/10 05:02:04;;;;;;;14.98;11.77;;;;;;;14.56;100.00;93599.75;5006042;28;20180;-59
2023/06/10 05:04:31;;;;;;;14.32;11.45;;;;;;;14.82;100.00;93590.59;5003606;28;20042;-58
2023/06/10 05:06:58;;;;;;;14.30;11.70;;;;;;;15.02;100.00;93604.81;4990486;28;20105;-57
2023/06/10 05:09:26;;;;;;;14.37;11.40;;;;;;;15.24;100.00;93599.25;4990754;28;20050;-58
2023/06/10 05:11:55;;;;;;;15.30;11.30;;;;;;;15.36;100.00;93605.91;4990215;28;20044;-58
2023/06/10 05:14:22;;;;;;;14.65;11.32;;;;;;;15.68;100.00;93598.38;4989365;28;20038;-58
2023/06/10 05:16:49;;;;;;;17.10;11.75;;;;;;;16.66;100.00;93604.19;5005854;28;20084;-64
2023/06/10 05:19:16;;;;;;;14.10;11.55;;;;;;;19.61;92.37;93594.13;5022841;28;20455;-60
2023/06/10 05:21:44;;;;;;;13.37;11.07;;;;;;;22.40;74.70;93589.72;5029446;28;20421;-67
2023/06/10 05:24:11;;;;;;;12.60;10.82;;;;;;;23.63;66.96;93590.59;5028321;28;20040;-67
2023/06/10 05:26:39;;;;;;;14.25;11.75;;;;;;;24.79;58.12;93592.16;5029706;28;20041;-60
2023/06/10 05:29:05;;;;;;;13.98;11.57;;;;;;;25.30;54.08;93589.91;5021203;28;20406;-58
2023/06/10 05:31:32;;;;;;;14.20;11.95;;;;;;;22.36;61.81;93594.81;5023258;28;20045;-58
2023/06/10 05:33:59;;;;;;;12.33;10.97;;;;;;;24.65;56.51;93597.59;5029146;28;20057;-63
2023/06/10 05:36:26;;;;;;;14.73;11.38;;;;;;;23.46;59.11;93598.97;5029625;28;20046;-61
2023/06/10 05:38:53;;;;;;;12.57;11.27;;;;;;;24.19;56.53;93601.00;5020830;28;20046;-63
2023/06/10 05:41:21;;;;;;;14.18;11.57;;;;;;;21.90;67.78;93602.09;5027669;28;20046;-60
2023/06/10 05:43:48;;;;;;;13.77;12.27;;;;;;;20.36;72.56;93608.63;5001792;28;20164;-60
2023/06/10 05:46:15;;;;;;;13.33;11.93;;;;;;;22.64;65.24;93603.31;5027791;28;20064;-59
2023/06/10 05:48:42;;;;;;;12.77;11.40;;;;;;;24.64;57.54;93606.53;5021149;28;20386;-59
2023/06/10 05:51:10;;;;;;;13.40;12.10;;;;;;;25.06;54.75;93604.56;5014552;28;20042;-61
2023/06/10 05:53:38;;;;;;;12.68;11.38;;;;;;;23.13;63.20;93606.78;5020100;28;20038;-64
2023/06/10 05:56:05;;;;;;;13.38;11.98;;;;;;;22.77;63.31;93602.84;5004365;28;20068;-61
2023/06/10 05:58:31;;;;;;;12.33;11.03;;;;;;;24.16;60.65;93605.59;5011924;28;20080;-67
2023/06/10 06:00:58;;;;;;;13.90;12.50;;;;;;;23.04;64.05;93598.66;5027007;28;20053;-59
2023/06/10 06:03:25;;;;;;;14.07;12.73;;;;;;;22.00;66.82;93608.28;5029140;28;20449;-57
2023/06/10 06:05:52;;;;;;;13.77;12.20;;;;;;;22.79;63.68;93602.34;5028452;28;20045;-57
2023/06/10 06:08:18;;;;;;;13.98;12.57;;;;;;;22.60;63.35;93604.84;5028760;28;20072;-60
2023/06/10 06:10:47;;;;;;;12.77;11.53;;;;;;;24.50;56.30;93613.97;5008384;28;20050;-60
2023/06/10 06:13:13;;;;;;;19.60;11.80;;;;;;;22.64;64.38;93608.91;5004593;28;20086;-60
2023/06/10 06:15:40;;;;;;;13.40;12.00;;;;;;;25.61;53.83;93608.31;5012131;28;20042;-59
2023/06/10 06:18:07;;;;;;;12.38;11.05;;;;;;;27.90;46.22;93607.56;5023882;28;20491;-59
2023/06/10 06:20:34;;;;;;;13.75;12.38;;;;;;;23.05;55.99;93611.34;5009054;28;20050;-59
2023/06/10 06:23:00;;;;;;;13.60;12.17;;;;;;;23.13;61.79;93618.00;5017278;28;20041;-60
2023/06/10 06:25:27;;;;;;;12.77;11.10;;;;;;;25.27;53.33;93610.59;5000102;28;20050;-59
2023/06/10 06:27:54;;;;;;;14.90;11.18;;;;;;;25.89;51.67;93610.91;5026625;28;20048;-65
2023/06/10 06:30:20;;;;;;;13.77;12.35;;;;;;;23.42;56.29;93607.63;5021178;28;20052;-59
2023/06/10 06:32:47;;;;;;;12.50;10.93;;;;;;;26.29;49.40;93602.91;5015554;28;20041;-58
2023/06/10 06:35:14;;;;;;;11.83;10.70;;;;;;;26.37;49.75;93605.91;5028928;28;20064;-65
2023/06/10 06:37:41;;;;;;;12.93;11.63;;;;;;;26.19;49.66;93610.16;5028565;28;20115;-61
2023/06/10 06:40:08;;;;;;;12.80;11.50;;;;;;;25.23;52.06;93615.72;5029131;28;20053;-59
2023/06/10 06:42:35;;;;;;;12.90;11.60;;;;;;;27.55;46.78;93608.59;5028766;28;20516;-59
2023/06/10 06:45:02;;;;;;;12.25;10.95;;;;;;;25.54;52.30;93611.69;5027163;28;20114;-59
2023/06/10 06:47:29;;;;;;;12.87;11.67;;;;;;;24.45;52.77;93618.28;5026615;28;20053;-59
2023/06/10 06:49:55;;;;;;;13.85;11.90;;;;;;;24.81;53.67;93609.25;5001123;28;20045;-70
2023/06/10 06:52:22;;;;;;;12.65;11.32;;;;;;;27.81;46.47;93605.13;5028272;28;20042;-62
2023/06/10 06:54:49;;;;;;;12.55;11.35;;;;;;;26.50;48.40;93614.47;5019369;28;20045;-59
2023/06/10 06:57:16;;;;;;;12.38;11.18;;;;;;;27.76;45.30;93615.19;5016351;28;20053;-67
2023/06/10 06:59:42;;;;;;;13.63;11.30;;;;;;;25.86;49.63;93619.66;5028193;28;20041;-59
2023/06/10 07:02:10;;;;;;;10.88;9.68;;;;;;;28.31;46.03;93605.59;5014127;28;20413;-57
2023/06/10 07:04:37;;;;;;;11.40;10.20;;;;;;;30.55;39.92;93601.31;4988312;28;20065;-57
2023/06/10 07:07:04;;;;;;;12.18;10.00;;;;;;;31.85;37.39;93606.84;4988796;28;20438;-61
2023/06/10 07:09:31;;;;;;;11.98;10.65;;;;;;;29.29;40.69;93607.59;4989071;28;20042;-59
2023/06/10 07:11:58;;;;;;;11.80;10.00;;;;;;;30.36;39.23;93610.78;4987343;28;20050;-57
2023/06/10 07:14:25;;;;;;;12.02;10.80;;;;;;;28.90;42.10;93608.41;4994975;28;20046;-57
2023/06/10 07:16:51;;;;;;;10.23;9.23;;;;;;;30.96;39.77;93613.88;5009385;28;20080;-57
2023/06/10 07:19:18;;;;;;;9.93;8.10;;;;;;;32.40;35.74;93603.53;5012341;28;20274;-57
2023/06/10 07:21:45;;;;;;;10.27;8.57;;;;;;;32.71;35.16;93605.63;5011884;28;20420;-63
2023/06/10 07:24:12;;;;;;;10.60;9.07;;;;;;;33.20;33.73;93608.00;5010787;28;20042;-59
2023/06/10 07:26:39;;;;;;;9.18;8.27;;;;;;;35.04;31.44;93611.03;5018282;28;20448;-63
2023/06/10 07:29:05;;;;;;;8.70;7.80;;;;;;;33.76;30.95;93598.69;5020301;28;20046;-57
2023/06/10 07:31:32;;;;;;;8.13;7.32;;;;;;;33.29;31.91;93605.91;5016382;28;20045;-59
2023/06/10 07:34:00;;;;;;;8.38;7.13;;;;;;;34.03;31.01;93601.75;5011159;28;20062;-63
2023/06/10 07:36:28;;;;;;;8.33;6.77;;;;;;;35.85;27.96;93604.03;5012014;28;20038;-66
2023/06/10 07:38:55;;;;;;;7.88;6.90;;;;;;;36.95;26.05;93597.59;5011492;28;20044;-57
2023/06/10 07:41:25;;;;;;;6.93;6.22;;;;;;;36.42;26.47;93599.97;5012150;28;20544;-60
2023/06/10 07:43:55;;;;;;;6.90;6.20;;;;;;;32.66;30.32;93595.19;5011623;28;20046;-58
2023/06/10 07:46:23;;;;;;;7.25;6.55;;;;;;;32.01;31.84;93602.00;5011601;28;20068;-57
2023/06/10 07:48:51;;;;;;;8.33;7.40;;;;;;;27.86;38.16;93609.91;5010554;28;20099;-66
2023/06/10 07:51:18;;;;;;;7.32;6.63;;;;;;;33.23;30.90;93598.31;5019645;28;20041;-59
2023/06/10 07:53:45;;;;;;;8.10;7.30;;;;;;;29.87;34.53;93603.72;5030750;28;20390;-66
2023/06/10 07:56:12;;;;;;;7.75;6.95;;;;;;;25.01;42.26;93613.75;5030229;28;20444;-62
2023/06/10 07:58:39;;;;;;;8.13;7.32;;;;;;;25.28;45.59;93612.88;5031697;28;20045;-57
2023/06/10 08:01:05;;;;;;;7.83;7.07;;;;;;;29.87;36.76;93605.81;5005664;28;20785;-56
2023/06/10 08:03:32;;;;;;;7.10;6.40;;;;;;;33.07;31.52;93601.75;4992171;28;20050;-59
2023/06/10 08:05:59;;;;;;;7.93;6.47;;;;;;;30.94;33.07;93616.50;4991847;28;20133;-63
2023/06/10 08:08:26;;;;;;;7.70;6.88;;;;;;;27.81;38.85;93614.38;4991891;28;20061;-60
2023/06/10 08:10:52;;;;;;;7.30;6.57;;;;;;;28.09;38.83;93616.75;4993654;28;20053;-59
2023/06/10 08:13:19;;;;;;;7.20;6.30;;;;;;;30.73;34.79;93613.72;5011397;28;20048;-59
2023/06/10 08:15:47;;;;;;;7.28;6.57;;;;;;;30.65;33.98;93611.56;5028221;28;20045;-63
2023/06/10 08:18:14;;;;;;;8.60;7.00;;;;;;;27.98;38.66;93614.09;5030954;28;20176;-59
2023/06/10 08:20:41;;;;;;;8.20;6.95;;;;;;;28.90;37.52;93619.69;5023022;28;20038;-66
2023/06/10 08:23:07;;;;;;;7.32;6.60;;;;;;;28.39;37.33;93617.78;5016419;28;20045;-60
2023/06/10 08:25:34;;;;;;;7.27;6.57;;;;;;;27.64;38.67;93614.59;5031093;28;20038;-59
2023/06/10 08:28:01;;;;;;;7.40;6.70;;;;;;;28.18;38.84;93615.56;5030046;28;20037;-59
2023/06/10 08:30:28;;;;;;;7.45;6.63;;;;;;;27.80;38.81;93612.06;5023932;28;20045;-60
2023/06/10 08:32:55;;;;;;;8.68;6.97;;;;;;;29.36;36.73;93608.97;5010172;28;20092;-65
2023/06/10 08:35:22;;;;;;;7.18;6.35;;;;;;;28.70;38.06;93609.81;5009628;28;20041;-60
2023/06/10 08:37:49;;;;;;;7.20;6.40;;;;;;;30.53;35.56;93609.59;5010652;28;20561;-66
2023/06/10 08:40:15;;;;;;;7.50;6.57;;;;;;;28.21;38.45;93614.50;5010809;28;20056;-56
2023/06/10 08:43:00;;;;;;;8.30;6.72;;;;;;;28.60;38.34;93613.06;5010367;28;20052;-57
2023/06/10 08:45:31;;;;;;;7.82;6.70;;;;;;;27.67;39.64;93615.59;4991237;28;20058;-63
2023/06/10 08:47:59;;;;;;;7.30;6.60;;;;;;;27.57;40.07;93615.25;4993288;28;20038;-57
2023/06/10 08:50:29;;;;;;;7.10;6.40;;;;;;;30.08;36.18;93608.63;5017095;28;20118;-59
2023/06/10 08:52:58;;;;;;;9.02;6.20;;;;;;;31.18;34.00;93601.88;5029727;28;20047;-56
2023/06/10 08:55:41;;;;;;;7.60;6.70;;;;;;;30.73;34.70;93608.78;5016207;28;20038;-59
2023/06/10 08:58:08;;;;;;;7.68;6.85;;;;;;;30.44;34.78;93610.84;5006716;28;20054;-61
2023/06/10 09:00:36;;;;;;;7.88;6.93;;;;;;;27.71;39.91;93601.97;5003819;28;20042;-59
2023/06/10 09:03:04;;;;;;;7.00;6.30;;;;;;;30.62;34.86;93606.25;4991103;28;20042;-59
2023/06/10 09:05:36;;;;;;;8.05;6.28;;;;;;;31.96;32.38;93594.41;5010579;28;20045;-63
2023/06/10 09:08:05;;;;;;;7.38;6.47;;;;;;;31.21;32.76;93600.00;4996836;28;20049;-61
2023/06/10 09:10:32;;;;;;;7.03;6.32;;;;;;;30.96;33.57;93611.03;4990678;28;20410;-59
2023/06/10 09:12:59;;;;;;;8.55;6.40;;;;;;;31.09;34.38;93602.41;4989985;28;20154;-59
2023/06/10 09:15:26;;;;;;;7.70;6.60;;;;;;;32.03;32.12;93588.72;5005050;28;20060;-68
2023/06/10 09:17:53;;;;;;;7.85;6.60;;;;;;;30.72;33.76;93604.44;5028041;28;20409;-65
2023/06/10 09:20:20;;;;;;;7.65;6.60;;;;;;;30.16;34.94;93606.63;5030095;28;20049;-62
2023/06/10 09:22:47;;;;;;;7.68;6.80;;;;;;;29.63;36.23;93599.13;5029441;28;20408;-59
2023/06/10 09:25:14;;;;;;;7.30;6.60;;;;;;;32.73;31.00;93595.19;5029098;28;20502;-59
2023/06/10 09:27:53;;;;;;;7.33;6.63;;;;;;;31.97;31.77;93590.22;5001123;28;20049;-60
2023/06/10 09:30:31;;;;;;;6.90;6.20;;;;;;;34.78;28.81;93595.31;5024117;28;20171;-60
2023/06/10 09:33:01;;;;;;;7.70;6.00;;;;;;;34.69;27.96;93595.97;5009709;28;20179;-59
2023/06/10 09:35:30;;;;;;;7.18;6.22;;;;;;;34.16;28.89;93592.19;5008578;28;20048;-59
2023/06/10 09:37:58;;;;;;;7.68;6.82;;;;;;;33.14;28.64;93592.47;5017736;28;20513;-59
2023/06/10 09:40:26;;;;;;;9.33;6.37;;;;;;;32.73;29.83;93597.28;5024906;28;20068;-59
2023/06/10 09:42:56;;;;;;;8.35;6.40;;;;;;;30.62;31.35;93604.16;5013937;28;20052;-59
2023/06/10 09:45:23;;;;;;;7.65;6.72;;;;;;;30.50;32.43;93585.97;4992663;28;20038;-57
2023/06/10 09:47:53;;;;;;;7.68;6.70;;;;;;;30.78;31.26;93595.78;5001092;28;20060;-59
2023/06/10 09:50:20;;;;;;;10.35;7.57;;;;;;;28.56;34.86;93589.28;4989918;28;20061;-66
2023/06/10 09:52:48;;;;;;;7.80;7.00;;;;;;;31.22;31.56;93598.69;4998820;28;20060;-61
2023/06/10 09:55:15;;;;;;;9.73;7.68;;;;;;;29.14;36.05;93590.44;5002692;28;20441;-59
2023/06/10 09:57:44;;;;;;;15.55;7.20;;;;;;;30.07;35.77;93593.72;5008893;28;20159;-62
2023/06/10 10:00:12;;;;;;;12.20;7.82;;;;;;;26.24;41.49;93597.34;5023836;28;20038;-58
2023/06/10 10:02:49;;;;;;;9.25;7.65;;;;;;;27.40;39.68;93592.16;5011409;28;20049;-59
2023/06/10 10:05:21;;;;;;;8.20;7.30;;;;;;;29.15;36.83;93591.97;5017800;28;21213;-58
2023/06/10 10:07:48;;;;;;;7.95;7.15;;;;;;;30.23;34.65;93594.63;4989456;28;20050;-58
2023/06/10 10:10:17;;;;;;;9.07;7.70;;;;;;;26.26;42.40;93609.59;4989771;28;20416;-58
2023/06/10 10:12:46;;;;;;;9.07;7.53;;;;;;;27.72;39.30;93597.06;5006254;28;20042;-58
2023/06/10 10:15:16;;;;;;;15.93;14.38;;;;;;;28.44;37.36;93597.16;5021849;28;20055;-58
2023/06/10 10:17:52;;;;;;;8.23;6.77;;;;;;;29.59;34.96;93592.28;5027609;28;20057;-62
2023/06/10 10:20:24;;;;;;;9.60;7.78;;;;;;;29.80;34.95;93595.16;5013470;28;20398;-58
2023/06/10 10:22:55;;;;;;;10.10;7.80;;;;;;;26.03;41.15;93594.22;4989270;28;20058;-61
2023/06/10 10:25:31;;;;;;;9.00;8.10;;;;;;;25.57;42.18;93601.47;5003600;28;20046;-59
2023/06/10 10:28:12;;;;;;;10.02;8.30;;;;;;;24.32;44.34;93601.97;5016656;28;20058;-64
2023/06/10 10:30:49;;;;;;;9.23;7.70;;;;;;;24.29;44.49;93597.41;5020440;28;20095;-59
2023/06/10 10:33:19;;;;;;;8.90;8.00;;;;;;;24.96;43.42;93595.66;4995088;28;20258;-63
2023/06/10 10:35:46;;;;;;;9.00;8.07;;;;;;;27.38;39.57;93591.94;5008518;28;20044;-59
2023/06/10 10:38:13;;;;;;;8.93;7.45;;;;;;;29.08;35.93;93593.38;5008879;28;20149;-63
2023/06/10 10:40:42;;;;;;;9.43;8.07;;;;;;;25.08;43.59;93608.38;4995329;28;20156;-64
2023/06/10 10:43:09;;;;;;;8.43;7.30;;;;;;;29.03;37.17;93586.53;5014575;28;20045;-59
2023/06/10 10:45:35;;;;;;;8.23;7.35;;;;;;;28.60;36.87;93590.47;5002896;28;20156;-59
2023/06/10 10:48:11;;;;;;;7.90;7.10;;;;;;;30.97;33.28;93589.84;4994267;28;20072;-59
2023/06/10 10:50:39;;;;;;;8.40;7.00;;;;;;;29.89;34.48;93589.03;5010778;28;20376;-58
2023/06/10 10:53:06;;;;;;;7.78;6.70;;;;;;;28.75;35.15;93587.09;5011491;28;20866;-58
2023/06/10 10:55:33;;;;;;;7.87;6.60;;;;;;;27.22;37.74;93574.69;5000532;28;20552;-59
2023/06/10 10:58:07;;;;;;;7.65;6.88;;;;;;;27.84;36.51;93565.34;4999662;28;20081;-63
2023/06/10 11:00:44;;;;;;;7.68;6.88;;;;;;;28.32;36.18;93578.91;4993340;28;20096;-59
2023/06/10 11:03:19;;;;;;;8.40;7.28;;;;;;;27.30;37.61;93580.50;5001739;28;20052;-58
2023/06/10 11:05:49;;;;;;;7.82;7.00;;;;;;;27.13;38.42;93579.97;5006388;28;20398;-58
2023/06/10 11:08:39;;;;;;;8.33;7.03;;;;;;;28.73;35.84;93574.81;5004285;28;20046;-58
2023/06/10 11:11:26;;;;;;;8.88;7.40;;;;;;;29.01;35.52;93572.19;4987918;28;20961;-59
2023/06/10 11:14:04;;;;;;;8.23;7.40;;;;;;;28.32;37.25;93573.28;4992596;28;20069;-58
2023/06/10 11:16:41;;;;;;;10.82;7.13;;;;;;;27.83;37.24;93575.09;4992921;28;20058;-59
2023/06/10 11:19:09;;;;;;;7.78;6.97;;;;;;;28.13;37.29;93571.31;5011292;28;21069;-58
2023/06/10 11:21:59;;;;;;;7.97;7.17;;;;;;;28.37;36.66;93567.53;5021275;28;20041;-61
2023/06/10 11:24:26;;;;;;;7.25;6.45;;;;;;;28.87;35.68;93565.03;5026018;28;20444;-59